sensor_id;sensor_type;location;lat;lon;timestamp;temperature;humidity
28189;DHT22;15471;51.166;4.470;2022-12-18T00:01:37;-4.40;99.90
28189;DHT22;15471;51.166;4.470;2022-12-18T00:04:05;-4.40;99.90
28189;DHT22;15471;51.166;4.470;2022-12-18T00:06:34;-4.40;99.90
28189;DHT22;15471;51.166;4.470;2022-12-18T00:09:02;-4.40;99.90
28189;DHT22;15471;51.166;4.470;2022-12-18T00:11:30;-4.40;99.90
28189;DHT22;15471;51.166;4.470;2022-12-18T00:13:58;-4.40;99.90
28189;DHT22;15471;51.166;4.470;2022-12-18T00:16:26;-4.40;99.90
28189;DHT22;15471;51.166;4.470;2022-12-18T00:18:55;-4.40;99.90
28189;DHT22;15471;51.166;4.470;2022-12-18T00:21:21;-4.40;99.90
28189;DHT22;15471;51.166;4.470;2022-12-18T00:23:48;-4.40;99.90
28189;DHT22;15471;51.166;4.470;2022-12-18T00:26:20;-4.30;99.90
28189;DHT22;15471;51.166;4.470;2022-12-18T00:28:50;-4.40;99.90
28189;DHT22;15471;51.166;4.470;2022-12-18T00:31:18;-4.40;99.90
28189;DHT22;15471;51.166;4.470;2022-12-18T00:33:45;-4.50;99.90
28189;DHT22;15471;51.166;4.470;2022-12-18T00:36:13;-4.50;99.90
28189;DHT22;15471;51.166;4.470;2022-12-18T00:38:39;-4.50;99.90
28189;DHT22;15471;51.166;4.470;2022-12-18T00:41:09;-4.50;99.90
28189;DHT22;15471;51.166;4.470;2022-12-18T00:43:35;-4.50;99.90
28189;DHT22;15471;51.166;4.470;2022-12-18T00:46:02;-4.50;99.90
28189;DHT22;15471;51.166;4.470;2022-12-18T00:48:28;-4.50;99.90
28189;DHT22;15471;51.166;4.470;2022-12-18T00:50:54;-4.60;99.90
28189;DHT22;15471;51.166;4.470;2022-12-18T00:53:20;-4.60;99.90
28189;DHT22;15471;51.166;4.470;2022-12-18T00:55:46;-4.60;99.90
28189;DHT22;15471;51.166;4.470;2022-12-18T00:58:14;-4.60;99.90
28189;DHT22;15471;51.166;4.470;2022-12-18T01:00:40;-4.60;99.90
28189;DHT22;15471;51.166;4.470;2022-12-18T01:03:13;-4.60;99.90
28189;DHT22;15471;51.166;4.470;2022-12-18T01:05:41;-4.60;99.90
28189;DHT22;15471;51.166;4.470;2022-12-18T01:08:07;-4.70;99.90
28189;DHT22;15471;51.166;4.470;2022-12-18T01:10:33;-4.70;99.90
28189;DHT22;15471;51.166;4.470;2022-12-18T01:12:58;-4.70;99.90
28189;DHT22;15471;51.166;4.470;2022-12-18T01:15:24;-4.80;99.90
28189;DHT22;15471;51.166;4.470;2022-12-18T01:17:52;-4.90;99.90
28189;DHT22;15471;51.166;4.470;2022-12-18T01:20:18;-4.90;99.90
28189;DHT22;15471;51.166;4.470;2022-12-18T01:22:44;-4.90;99.90
28189;DHT22;15471;51.166;4.470;2022-12-18T01:25:10;-5.00;99.90
28189;DHT22;15471;51.166;4.470;2022-12-18T01:27:35;-5.00;99.90
28189;DHT22;15471;51.166;4.470;2022-12-18T01:30:03;-5.00;99.90
28189;DHT22;15471;51.166;4.470;2022-12-18T01:32:30;-5.00;99.90
28189;DHT22;15471;51.166;4.470;2022-12-18T01:34:57;-5.00;99.90
28189;DHT22;15471;51.166;4.470;2022-12-18T01:37:23;-5.00;99.90
28189;DHT22;15471;51.166;4.470;2022-12-18T01:39:48;-5.00;99.90
28189;DHT22;15471;51.166;4.470;2022-12-18T01:42:16;-5.10;99.90
28189;DHT22;15471;51.166;4.470;2022-12-18T01:47:43;-5.10;99.90
28189;DHT22;15471;51.166;4.470;2022-12-18T01:50:27;-5.20;99.90
28189;DHT22;15471;51.166;4.470;2022-12-18T01:53:00;-5.20;99.90
28189;DHT22;15471;51.166;4.470;2022-12-18T01:55:35;-5.20;99.90
28189;DHT22;15471;51.166;4.470;2022-12-18T01:58:03;-5.20;99.90
28189;DHT22;15471;51.166;4.470;2022-12-18T02:00:29;-5.20;99.90
28189;DHT22;15471;51.166;4.470;2022-12-18T02:02:56;-5.30;99.90
28189;DHT22;15471;51.166;4.470;2022-12-18T02:09:09;-5.20;99.90
28189;DHT22;15471;51.166;4.470;2022-12-18T02:25:14;-5.30;99.90
28189;DHT22;15471;51.166;4.470;2022-12-18T02:27:42;-5.20;99.90
28189;DHT22;15471;51.166;4.470;2022-12-18T02:30:10;-5.30;99.90
28189;DHT22;15471;51.166;4.470;2022-12-18T02:32:43;-5.30;99.90
28189;DHT22;15471;51.166;4.470;2022-12-18T02:35:16;-5.30;99.90
28189;DHT22;15471;51.166;4.470;2022-12-18T02:37:44;-5.30;99.90
28189;DHT22;15471;51.166;4.470;2022-12-18T02:40:12;-5.30;99.90
28189;DHT22;15471;51.166;4.470;2022-12-18T02:42:39;-5.30;99.90
28189;DHT22;15471;51.166;4.470;2022-12-18T02:45:07;-5.30;99.90
28189;DHT22;15471;51.166;4.470;2022-12-18T02:47:39;-5.30;99.90
28189;DHT22;15471;51.166;4.470;2022-12-18T02:53:04;-5.30;99.90
28189;DHT22;15471;51.166;4.470;2022-12-18T02:59:00;-5.30;99.90
28189;DHT22;15471;51.166;4.470;2022-12-18T03:02:02;-5.20;99.90
28189;DHT22;15471;51.166;4.470;2022-12-18T03:04:43;-5.20;99.90
28189;DHT22;15471;51.166;4.470;2022-12-18T03:07:20;-5.20;99.90
28189;DHT22;15471;51.166;4.470;2022-12-18T03:09:53;-5.20;99.90
28189;DHT22;15471;51.166;4.470;2022-12-18T03:12:32;-5.20;99.90
28189;DHT22;15471;51.166;4.470;2022-12-18T03:15:27;-5.30;99.90
28189;DHT22;15471;51.166;4.470;2022-12-18T03:18:11;-5.30;99.90
28189;DHT22;15471;51.166;4.470;2022-12-18T03:20:40;-5.40;99.90
28189;DHT22;15471;51.166;4.470;2022-12-18T03:23:13;-5.30;99.90
28189;DHT22;15471;51.166;4.470;2022-12-18T03:25:46;-5.30;99.90
28189;DHT22;15471;51.166;4.470;2022-12-18T03:28:16;-5.20;99.90
28189;DHT22;15471;51.166;4.470;2022-12-18T03:30:46;-5.20;99.90
28189;DHT22;15471;51.166;4.470;2022-12-18T03:33:19;-5.20;99.90
28189;DHT22;15471;51.166;4.470;2022-12-18T03:35:50;-5.20;99.90
28189;DHT22;15471;51.166;4.470;2022-12-18T03:38:17;-5.30;99.90
28189;DHT22;15471;51.166;4.470;2022-12-18T03:41:12;-5.30;99.90
28189;DHT22;15471;51.166;4.470;2022-12-18T03:44:28;-5.20;99.90
28189;DHT22;15471;51.166;4.470;2022-12-18T03:47:19;-5.20;99.90
28189;DHT22;15471;51.166;4.470;2022-12-18T03:50:10;-5.30;99.90
28189;DHT22;15471;51.166;4.470;2022-12-18T03:52:57;-5.30;99.90
28189;DHT22;15471;51.166;4.470;2022-12-18T03:55:25;-5.30;99.90
28189;DHT22;15471;51.166;4.470;2022-12-18T03:57:59;-5.40;99.90
28189;DHT22;15471;51.166;4.470;2022-12-18T04:00:37;-5.40;99.90
28189;DHT22;15471;51.166;4.470;2022-12-18T04:03:08;-5.50;99.90
28189;DHT22;15471;51.166;4.470;2022-12-18T04:05:42;-5.50;99.90
28189;DHT22;15471;51.166;4.470;2022-12-18T04:08:09;-5.60;99.90
28189;DHT22;15471;51.166;4.470;2022-12-18T04:10:38;-5.60;99.90
28189;DHT22;15471;51.166;4.470;2022-12-18T04:13:04;-5.60;99.90
28189;DHT22;15471;51.166;4.470;2022-12-18T04:15:33;-5.70;99.90
28189;DHT22;15471;51.166;4.470;2022-12-18T04:17:59;-5.60;99.90
28189;DHT22;15471;51.166;4.470;2022-12-18T04:20:34;-5.70;99.90
28189;DHT22;15471;51.166;4.470;2022-12-18T04:23:02;-5.70;99.90
28189;DHT22;15471;51.166;4.470;2022-12-18T04:25:28;-5.70;99.90
28189;DHT22;15471;51.166;4.470;2022-12-18T04:28:17;-5.70;99.90
28189;DHT22;15471;51.166;4.470;2022-12-18T04:30:43;-5.70;99.90
28189;DHT22;15471;51.166;4.470;2022-12-18T04:33:10;-5.80;99.90
28189;DHT22;15471;51.166;4.470;2022-12-18T04:35:38;-5.80;99.90
28189;DHT22;15471;51.166;4.470;2022-12-18T04:38:04;-5.80;99.90
28189;DHT22;15471;51.166;4.470;2022-12-18T04:40:30;-5.70;99.90
28189;DHT22;15471;51.166;4.470;2022-12-18T04:42:56;-5.70;99.90
28189;DHT22;15471;51.166;4.470;2022-12-18T04:45:22;-5.70;99.90
28189;DHT22;15471;51.166;4.470;2022-12-18T04:47:48;-5.70;99.90
28189;DHT22;15471;51.166;4.470;2022-12-18T04:50:14;-5.70;99.90
28189;DHT22;15471;51.166;4.470;2022-12-18T04:52:39;-5.70;99.90
28189;DHT22;15471;51.166;4.470;2022-12-18T04:55:05;-5.70;99.90
28189;DHT22;15471;51.166;4.470;2022-12-18T04:57:31;-5.70;99.90
28189;DHT22;15471;51.166;4.470;2022-12-18T04:59:57;-5.70;99.90
28189;DHT22;15471;51.166;4.470;2022-12-18T05:02:23;-5.60;99.90
28189;DHT22;15471;51.166;4.470;2022-12-18T05:04:49;-5.60;99.90
28189;DHT22;15471;51.166;4.470;2022-12-18T05:07:14;-5.60;99.90
28189;DHT22;15471;51.166;4.470;2022-12-18T05:09:40;-5.60;99.90
28189;DHT22;15471;51.166;4.470;2022-12-18T05:12:06;-5.70;99.90
28189;DHT22;15471;51.166;4.470;2022-12-18T05:14:32;-5.70;99.90
28189;DHT22;15471;51.166;4.470;2022-12-18T05:16:57;-5.70;99.90
28189;DHT22;15471;51.166;4.470;2022-12-18T05:19:23;-5.80;99.90
28189;DHT22;15471;51.166;4.470;2022-12-18T05:21:49;-5.90;99.90
28189;DHT22;15471;51.166;4.470;2022-12-18T05:24:15;-5.90;99.90
28189;DHT22;15471;51.166;4.470;2022-12-18T05:26:40;-5.80;99.90
28189;DHT22;15471;51.166;4.470;2022-12-18T05:29:06;-5.70;99.90
28189;DHT22;15471;51.166;4.470;2022-12-18T05:31:32;-5.90;99.90
28189;DHT22;15471;51.166;4.470;2022-12-18T05:33:58;-5.90;99.90
28189;DHT22;15471;51.166;4.470;2022-12-18T05:36:23;-5.90;99.90
28189;DHT22;15471;51.166;4.470;2022-12-18T05:38:49;-5.90;99.90
28189;DHT22;15471;51.166;4.470;2022-12-18T05:41:15;-5.90;99.90
28189;DHT22;15471;51.166;4.470;2022-12-18T05:43:42;-6.00;99.90
28189;DHT22;15471;51.166;4.470;2022-12-18T05:46:13;-6.00;99.90
28189;DHT22;15471;51.166;4.470;2022-12-18T05:48:40;-6.00;99.90
28189;DHT22;15471;51.166;4.470;2022-12-18T05:51:09;-6.00;99.90
28189;DHT22;15471;51.166;4.470;2022-12-18T05:53:36;-5.90;99.90
28189;DHT22;15471;51.166;4.470;2022-12-18T05:56:04;-5.90;99.90
28189;DHT22;15471;51.166;4.470;2022-12-18T05:58:31;-5.90;99.90
28189;DHT22;15471;51.166;4.470;2022-12-18T06:00:57;-5.90;99.90
28189;DHT22;15471;51.166;4.470;2022-12-18T06:03:23;-5.80;99.90
28189;DHT22;15471;51.166;4.470;2022-12-18T06:05:49;-5.80;99.90
28189;DHT22;15471;51.166;4.470;2022-12-18T06:08:15;-5.80;99.90
28189;DHT22;15471;51.166;4.470;2022-12-18T06:10:41;-5.70;99.90
28189;DHT22;15471;51.166;4.470;2022-12-18T06:13:08;-5.70;99.90
28189;DHT22;15471;51.166;4.470;2022-12-18T06:15:36;-5.70;99.90
28189;DHT22;15471;51.166;4.470;2022-12-18T06:18:02;-5.70;99.90
28189;DHT22;15471;51.166;4.470;2022-12-18T06:20:29;-5.70;99.90
28189;DHT22;15471;51.166;4.470;2022-12-18T06:22:55;-5.70;99.90
28189;DHT22;15471;51.166;4.470;2022-12-18T06:25:21;-5.80;99.90
28189;DHT22;15471;51.166;4.470;2022-12-18T06:27:47;-5.80;99.90
28189;DHT22;15471;51.166;4.470;2022-12-18T06:30:14;-5.90;99.90
28189;DHT22;15471;51.166;4.470;2022-12-18T06:32:39;-5.90;99.90
28189;DHT22;15471;51.166;4.470;2022-12-18T06:35:06;-5.90;99.90
28189;DHT22;15471;51.166;4.470;2022-12-18T06:37:32;-5.90;99.90
28189;DHT22;15471;51.166;4.470;2022-12-18T06:39:57;-5.90;99.90
28189;DHT22;15471;51.166;4.470;2022-12-18T06:42:24;-5.90;99.90
28189;DHT22;15471;51.166;4.470;2022-12-18T06:44:50;-5.90;99.90
28189;DHT22;15471;51.166;4.470;2022-12-18T06:47:16;-5.90;99.90
28189;DHT22;15471;51.166;4.470;2022-12-18T06:49:41;-5.90;99.90
28189;DHT22;15471;51.166;4.470;2022-12-18T06:52:08;-5.90;99.90
28189;DHT22;15471;51.166;4.470;2022-12-18T06:54:34;-6.00;99.90
28189;DHT22;15471;51.166;4.470;2022-12-18T06:57:00;-6.00;99.90
28189;DHT22;15471;51.166;4.470;2022-12-18T06:59:25;-6.00;99.90
28189;DHT22;15471;51.166;4.470;2022-12-18T07:01:51;-6.00;99.90
28189;DHT22;15471;51.166;4.470;2022-12-18T07:04:17;-6.00;99.90
28189;DHT22;15471;51.166;4.470;2022-12-18T07:06:43;-6.00;99.90
28189;DHT22;15471;51.166;4.470;2022-12-18T07:09:08;-6.00;99.90
28189;DHT22;15471;51.166;4.470;2022-12-18T07:11:34;-5.90;99.90
28189;DHT22;15471;51.166;4.470;2022-12-18T07:14:00;-5.90;99.90
28189;DHT22;15471;51.166;4.470;2022-12-18T07:16:26;-5.90;99.90
28189;DHT22;15471;51.166;4.470;2022-12-18T07:18:55;-5.90;99.90
28189;DHT22;15471;51.166;4.470;2022-12-18T07:21:22;-5.90;99.90
28189;DHT22;15471;51.166;4.470;2022-12-18T07:23:48;-5.90;99.90
28189;DHT22;15471;51.166;4.470;2022-12-18T07:26:16;-6.00;99.90
28189;DHT22;15471;51.166;4.470;2022-12-18T07:28:42;-6.00;99.90
28189;DHT22;15471;51.166;4.470;2022-12-18T07:31:13;-6.00;99.90
28189;DHT22;15471;51.166;4.470;2022-12-18T07:33:39;-6.00;99.90
28189;DHT22;15471;51.166;4.470;2022-12-18T07:36:06;-6.00;99.90
28189;DHT22;15471;51.166;4.470;2022-12-18T07:38:34;-6.10;99.90
28189;DHT22;15471;51.166;4.470;2022-12-18T07:41:05;-6.10;99.90
28189;DHT22;15471;51.166;4.470;2022-12-18T07:43:31;-6.10;99.90
28189;DHT22;15471;51.166;4.470;2022-12-18T07:45:57;-6.00;99.90
28189;DHT22;15471;51.166;4.470;2022-12-18T07:48:23;-6.00;99.90
28189;DHT22;15471;51.166;4.470;2022-12-18T07:50:49;-5.90;99.90
28189;DHT22;15471;51.166;4.470;2022-12-18T07:53:15;-5.90;99.90
28189;DHT22;15471;51.166;4.470;2022-12-18T07:55:41;-5.90;99.90
28189;DHT22;15471;51.166;4.470;2022-12-18T07:58:08;-5.80;99.90
28189;DHT22;15471;51.166;4.470;2022-12-18T08:00:34;-5.80;99.90
28189;DHT22;15471;51.166;4.470;2022-12-18T08:03:00;-5.80;99.90
28189;DHT22;15471;51.166;4.470;2022-12-18T08:05:27;-5.80;99.90
28189;DHT22;15471;51.166;4.470;2022-12-18T08:07:53;-5.70;99.90
28189;DHT22;15471;51.166;4.470;2022-12-18T08:10:20;-5.70;99.90
28189;DHT22;15471;51.166;4.470;2022-12-18T08:12:49;-5.70;99.90
28189;DHT22;15471;51.166;4.470;2022-12-18T08:15:14;-5.70;99.90
28189;DHT22;15471;51.166;4.470;2022-12-18T08:17:40;-5.60;99.90
28189;DHT22;15471;51.166;4.470;2022-12-18T08:20:06;-5.50;99.90
28189;DHT22;15471;51.166;4.470;2022-12-18T08:22:34;-5.50;99.90
28189;DHT22;15471;51.166;4.470;2022-12-18T08:25:01;-5.50;99.90
28189;DHT22;15471;51.166;4.470;2022-12-18T08:27:27;-5.40;99.90
28189;DHT22;15471;51.166;4.470;2022-12-18T08:29:53;-5.30;99.90
28189;DHT22;15471;51.166;4.470;2022-12-18T08:32:19;-5.30;99.90
28189;DHT22;15471;51.166;4.470;2022-12-18T08:34:45;-5.20;99.90
28189;DHT22;15471;51.166;4.470;2022-12-18T08:37:10;-5.10;99.90
28189;DHT22;15471;51.166;4.470;2022-12-18T08:39:36;-5.00;99.90
28189;DHT22;15471;51.166;4.470;2022-12-18T08:42:02;-4.90;99.90
28189;DHT22;15471;51.166;4.470;2022-12-18T08:44:47;-4.90;99.90
28189;DHT22;15471;51.166;4.470;2022-12-18T08:47:12;-4.80;99.90
28189;DHT22;15471;51.166;4.470;2022-12-18T08:49:38;-4.70;99.90
28189;DHT22;15471;51.166;4.470;2022-12-18T08:52:04;-4.70;99.90
28189;DHT22;15471;51.166;4.470;2022-12-18T08:54:29;-4.60;99.90
28189;DHT22;15471;51.166;4.470;2022-12-18T08:56:55;-4.60;99.90
28189;DHT22;15471;51.166;4.470;2022-12-18T08:59:21;-4.50;99.90
28189;DHT22;15471;51.166;4.470;2022-12-18T09:01:48;-4.40;99.90
28189;DHT22;15471;51.166;4.470;2022-12-18T09:04:14;-4.30;99.90
28189;DHT22;15471;51.166;4.470;2022-12-18T09:06:40;-4.20;99.90
28189;DHT22;15471;51.166;4.470;2022-12-18T09:09:06;-4.10;99.90
28189;DHT22;15471;51.166;4.470;2022-12-18T09:11:32;-4.00;99.90
28189;DHT22;15471;51.166;4.470;2022-12-18T09:14:00;-3.90;99.90
28189;DHT22;15471;51.166;4.470;2022-12-18T09:16:27;-3.80;99.90
28189;DHT22;15471;51.166;4.470;2022-12-18T09:18:57;-3.70;99.90
28189;DHT22;15471;51.166;4.470;2022-12-18T09:21:29;-3.50;99.90
28189;DHT22;15471;51.166;4.470;2022-12-18T09:23:55;-3.40;99.90
28189;DHT22;15471;51.166;4.470;2022-12-18T09:26:25;-3.40;99.90
28189;DHT22;15471;51.166;4.470;2022-12-18T09:28:52;-3.40;99.90
28189;DHT22;15471;51.166;4.470;2022-12-18T09:31:22;-3.40;99.90
28189;DHT22;15471;51.166;4.470;2022-12-18T09:33:48;-3.30;99.90
28189;DHT22;15471;51.166;4.470;2022-12-18T09:36:16;-3.30;99.90
28189;DHT22;15471;51.166;4.470;2022-12-18T09:38:42;-3.20;99.90
28189;DHT22;15471;51.166;4.470;2022-12-18T09:43:56;-3.00;99.90
28189;DHT22;15471;51.166;4.470;2022-12-18T09:46:44;-2.90;99.90
28189;DHT22;15471;51.166;4.470;2022-12-18T09:49:15;-2.90;99.90
28189;DHT22;15471;51.166;4.470;2022-12-18T09:51:52;-2.70;99.90
28189;DHT22;15471;51.166;4.470;2022-12-18T09:54:40;-2.70;99.90
28189;DHT22;15471;51.166;4.470;2022-12-18T09:57:14;-2.70;99.90
28189;DHT22;15471;51.166;4.470;2022-12-18T09:59:42;-2.60;99.90
28189;DHT22;15471;51.166;4.470;2022-12-18T10:02:24;-2.70;99.90
28189;DHT22;15471;51.166;4.470;2022-12-18T10:05:13;-2.70;99.90
28189;DHT22;15471;51.166;4.470;2022-12-18T10:07:50;-2.60;99.90
28189;DHT22;15471;51.166;4.470;2022-12-18T10:16:00;-2.40;99.90
28189;DHT22;15471;51.166;4.470;2022-12-18T10:21:17;-2.30;99.90
28189;DHT22;15471;51.166;4.470;2022-12-18T10:26:28;-2.20;99.90
28189;DHT22;15471;51.166;4.470;2022-12-18T10:28:54;-2.10;99.90
28189;DHT22;15471;51.166;4.470;2022-12-18T10:31:23;-2.00;99.90
28189;DHT22;15471;51.166;4.470;2022-12-18T10:33:49;-2.10;99.90
28189;DHT22;15471;51.166;4.470;2022-12-18T10:36:15;-2.10;99.90
28189;DHT22;15471;51.166;4.470;2022-12-18T10:38:42;-2.00;99.90
28189;DHT22;15471;51.166;4.470;2022-12-18T10:44:11;-1.90;99.90
28189;DHT22;15471;51.166;4.470;2022-12-18T10:46:37;-1.90;99.90
28189;DHT22;15471;51.166;4.470;2022-12-18T10:49:04;-1.80;99.90
28189;DHT22;15471;51.166;4.470;2022-12-18T10:51:33;-1.80;99.90
28189;DHT22;15471;51.166;4.470;2022-12-18T10:54:03;-1.70;99.90
28189;DHT22;15471;51.166;4.470;2022-12-18T10:56:31;-1.70;99.90
28189;DHT22;15471;51.166;4.470;2022-12-18T10:59:04;-1.60;99.90
28189;DHT22;15471;51.166;4.470;2022-12-18T11:01:53;-1.60;99.90
28189;DHT22;15471;51.166;4.470;2022-12-18T11:04:29;-1.50;99.90
28189;DHT22;15471;51.166;4.470;2022-12-18T11:07:15;-1.40;99.90
28189;DHT22;15471;51.166;4.470;2022-12-18T11:09:40;-1.40;99.90
28189;DHT22;15471;51.166;4.470;2022-12-18T11:12:17;-1.30;99.90
28189;DHT22;15471;51.166;4.470;2022-12-18T11:14:47;-1.30;99.90
28189;DHT22;15471;51.166;4.470;2022-12-18T11:20:05;-1.20;99.90
28189;DHT22;15471;51.166;4.470;2022-12-18T11:22:34;-1.10;99.90
28189;DHT22;15471;51.166;4.470;2022-12-18T11:25:18;-1.00;99.90
28189;DHT22;15471;51.166;4.470;2022-12-18T11:27:54;-0.90;99.90
28189;DHT22;15471;51.166;4.470;2022-12-18T11:30:24;-0.90;99.90
28189;DHT22;15471;51.166;4.470;2022-12-18T11:35:32;-0.70;99.90
28189;DHT22;15471;51.166;4.470;2022-12-18T11:38:10;-0.70;99.90
28189;DHT22;15471;51.166;4.470;2022-12-18T11:40:37;-0.70;99.90
28189;DHT22;15471;51.166;4.470;2022-12-18T11:43:08;-0.60;99.90
28189;DHT22;15471;51.166;4.470;2022-12-18T11:45:41;-0.50;99.90
28189;DHT22;15471;51.166;4.470;2022-12-18T11:48:18;-0.50;99.90
28189;DHT22;15471;51.166;4.470;2022-12-18T11:50:51;-0.50;99.90
28189;DHT22;15471;51.166;4.470;2022-12-18T11:53:18;-0.50;99.90
28189;DHT22;15471;51.166;4.470;2022-12-18T11:58:42;-0.40;99.90
28189;DHT22;15471;51.166;4.470;2022-12-18T12:04:37;-0.40;99.90
28189;DHT22;15471;51.166;4.470;2022-12-18T12:07:20;-0.40;99.90
28189;DHT22;15471;51.166;4.470;2022-12-18T12:12:31;-0.40;99.90
28189;DHT22;15471;51.166;4.470;2022-12-18T12:15:46;-0.40;99.90
28189;DHT22;15471;51.166;4.470;2022-12-18T12:31:58;-0.10;99.90
28189;DHT22;15471;51.166;4.470;2022-12-18T12:39:59;0.00;99.90
28189;DHT22;15471;51.166;4.470;2022-12-18T12:42:48;0.00;99.90
28189;DHT22;15471;51.166;4.470;2022-12-18T12:50:55;0.00;99.90
28189;DHT22;15471;51.166;4.470;2022-12-18T12:53:29;0.00;99.90
28189;DHT22;15471;51.166;4.470;2022-12-18T12:55:56;0.00;99.90
28189;DHT22;15471;51.166;4.470;2022-12-18T12:58:33;-0.10;99.90
28189;DHT22;15471;51.166;4.470;2022-12-18T13:01:23;-0.10;99.90
28189;DHT22;15471;51.166;4.470;2022-12-18T13:04:12;0.10;99.90
28189;DHT22;15471;51.166;4.470;2022-12-18T13:09:18;0.00;99.90
28189;DHT22;15471;51.166;4.470;2022-12-18T13:11:46;0.10;99.90
28189;DHT22;15471;51.166;4.470;2022-12-18T13:14:37;0.10;99.90
28189;DHT22;15471;51.166;4.470;2022-12-18T13:19:48;0.10;99.90
28189;DHT22;15471;51.166;4.470;2022-12-18T13:22:28;0.10;99.90
28189;DHT22;15471;51.166;4.470;2022-12-18T13:24:55;0.10;99.90
28189;DHT22;15471;51.166;4.470;2022-12-18T13:38:34;0.10;99.90
28189;DHT22;15471;51.166;4.470;2022-12-18T13:43:48;0.10;99.90
28189;DHT22;15471;51.166;4.470;2022-12-18T13:46:46;0.10;99.90
28189;DHT22;15471;51.166;4.470;2022-12-18T13:51:44;0.20;99.90
28189;DHT22;15471;51.166;4.470;2022-12-18T13:54:39;0.10;99.90
28189;DHT22;15471;51.166;4.470;2022-12-18T13:57:23;0.10;99.90
28189;DHT22;15471;51.166;4.470;2022-12-18T13:59:50;0.10;99.90
28189;DHT22;15471;51.166;4.470;2022-12-18T14:02:22;0.10;99.90
28189;DHT22;15471;51.166;4.470;2022-12-18T14:04:49;0.10;99.90
28189;DHT22;15471;51.166;4.470;2022-12-18T14:07:16;0.10;99.90
28189;DHT22;15471;51.166;4.470;2022-12-18T14:09:49;0.30;99.90
28189;DHT22;15471;51.166;4.470;2022-12-18T14:12:19;0.20;99.90
28189;DHT22;15471;51.166;4.470;2022-12-18T14:15:09;0.30;99.90
28189;DHT22;15471;51.166;4.470;2022-12-18T14:17:43;0.20;99.90
28189;DHT22;15471;51.166;4.470;2022-12-18T14:20:14;0.20;99.90
28189;DHT22;15471;51.166;4.470;2022-12-18T14:22:45;0.20;99.90
28189;DHT22;15471;51.166;4.470;2022-12-18T14:25:18;0.20;99.90
28189;DHT22;15471;51.166;4.470;2022-12-18T14:27:57;0.10;99.90
28189;DHT22;15471;51.166;4.470;2022-12-18T14:30:30;0.10;99.90
28189;DHT22;15471;51.166;4.470;2022-12-18T14:36:02;0.20;99.90
28189;DHT22;15471;51.166;4.470;2022-12-18T14:38:38;0.10;99.90
28189;DHT22;15471;51.166;4.470;2022-12-18T14:41:12;0.10;99.90
28189;DHT22;15471;51.166;4.470;2022-12-18T14:43:40;0.10;99.90
28189;DHT22;15471;51.166;4.470;2022-12-18T14:49:02;0.10;99.90
28189;DHT22;15471;51.166;4.470;2022-12-18T14:51:31;0.10;99.90
28189;DHT22;15471;51.166;4.470;2022-12-18T14:54:03;0.10;99.90
28189;DHT22;15471;51.166;4.470;2022-12-18T14:56:43;0.10;99.90
28189;DHT22;15471;51.166;4.470;2022-12-18T14:59:20;0.10;99.90
28189;DHT22;15471;51.166;4.470;2022-12-18T15:07:26;0.10;99.90
28189;DHT22;15471;51.166;4.470;2022-12-18T15:10:18;0.10;99.90
28189;DHT22;15471;51.166;4.470;2022-12-18T15:13:07;0.10;99.90
28189;DHT22;15471;51.166;4.470;2022-12-18T15:18:00;0.20;99.90
28189;DHT22;15471;51.166;4.470;2022-12-18T15:20:26;0.10;99.90
28189;DHT22;15471;51.166;4.470;2022-12-18T15:22:53;0.10;99.90
28189;DHT22;15471;51.166;4.470;2022-12-18T15:25:34;0.10;99.90
28189;DHT22;15471;51.166;4.470;2022-12-18T15:28:02;0.10;99.90
28189;DHT22;15471;51.166;4.470;2022-12-18T15:30:28;0.10;99.90
28189;DHT22;15471;51.166;4.470;2022-12-18T15:33:22;0.20;99.90
28189;DHT22;15471;51.166;4.470;2022-12-18T15:35:56;0.10;99.90
28189;DHT22;15471;51.166;4.470;2022-12-18T15:38:22;0.20;99.90
28189;DHT22;15471;51.166;4.470;2022-12-18T15:40:48;0.20;99.90
28189;DHT22;15471;51.166;4.470;2022-12-18T15:43:13;0.20;99.90
28189;DHT22;15471;51.166;4.470;2022-12-18T15:45:58;0.30;99.90
28189;DHT22;15471;51.166;4.470;2022-12-18T15:48:24;0.30;99.90
28189;DHT22;15471;51.166;4.470;2022-12-18T15:50:52;0.40;99.90
28189;DHT22;15471;51.166;4.470;2022-12-18T15:53:19;0.30;99.90
28189;DHT22;15471;51.166;4.470;2022-12-18T15:55:45;0.30;99.90
28189;DHT22;15471;51.166;4.470;2022-12-18T15:58:30;0.30;99.90
28189;DHT22;15471;51.166;4.470;2022-12-18T16:00:58;0.40;99.90
28189;DHT22;15471;51.166;4.470;2022-12-18T16:03:24;0.40;99.90
28189;DHT22;15471;51.166;4.470;2022-12-18T16:05:50;0.40;99.90
28189;DHT22;15471;51.166;4.470;2022-12-18T16:08:16;0.40;99.90
28189;DHT22;15471;51.166;4.470;2022-12-18T16:10:41;0.50;99.90
28189;DHT22;15471;51.166;4.470;2022-12-18T16:13:12;0.40;99.90
28189;DHT22;15471;51.166;4.470;2022-12-18T16:15:39;0.50;99.90
28189;DHT22;15471;51.166;4.470;2022-12-18T16:18:05;0.60;99.90
28189;DHT22;15471;51.166;4.470;2022-12-18T16:20:31;0.60;99.90
28189;DHT22;15471;51.166;4.470;2022-12-18T16:22:57;0.50;99.90
28189;DHT22;15471;51.166;4.470;2022-12-18T16:25:27;0.50;99.90
28189;DHT22;15471;51.166;4.470;2022-12-18T16:27:54;0.50;99.90
28189;DHT22;15471;51.166;4.470;2022-12-18T16:30:23;0.50;99.90
28189;DHT22;15471;51.166;4.470;2022-12-18T16:32:49;0.50;99.90
28189;DHT22;15471;51.166;4.470;2022-12-18T16:35:16;0.60;99.90
28189;DHT22;15471;51.166;4.470;2022-12-18T16:37:42;0.70;99.90
28189;DHT22;15471;51.166;4.470;2022-12-18T16:40:10;0.70;99.90
28189;DHT22;15471;51.166;4.470;2022-12-18T16:42:38;0.60;99.90
28189;DHT22;15471;51.166;4.470;2022-12-18T16:45:05;0.60;99.90
28189;DHT22;15471;51.166;4.470;2022-12-18T16:47:32;0.60;99.90
28189;DHT22;15471;51.166;4.470;2022-12-18T16:49:58;0.70;99.90
28189;DHT22;15471;51.166;4.470;2022-12-18T16:52:24;0.70;99.90
28189;DHT22;15471;51.166;4.470;2022-12-18T16:54:50;0.80;99.90
28189;DHT22;15471;51.166;4.470;2022-12-18T16:57:18;0.80;99.90
28189;DHT22;15471;51.166;4.470;2022-12-18T16:59:45;0.80;99.90
28189;DHT22;15471;51.166;4.470;2022-12-18T17:02:13;0.80;99.90
28189;DHT22;15471;51.166;4.470;2022-12-18T17:04:40;0.70;99.90
28189;DHT22;15471;51.166;4.470;2022-12-18T17:07:07;0.80;99.90
28189;DHT22;15471;51.166;4.470;2022-12-18T17:09:33;0.80;99.90
28189;DHT22;15471;51.166;4.470;2022-12-18T17:11:59;0.80;99.90
28189;DHT22;15471;51.166;4.470;2022-12-18T17:14:25;0.90;99.90
28189;DHT22;15471;51.166;4.470;2022-12-18T17:16:53;0.80;99.90
28189;DHT22;15471;51.166;4.470;2022-12-18T17:19:19;0.80;99.90
28189;DHT22;15471;51.166;4.470;2022-12-18T17:21:47;0.80;99.90
28189;DHT22;15471;51.166;4.470;2022-12-18T17:24:14;0.90;99.90
28189;DHT22;15471;51.166;4.470;2022-12-18T17:26:40;0.90;99.90
28189;DHT22;15471;51.166;4.470;2022-12-18T17:29:06;0.90;99.90
28189;DHT22;15471;51.166;4.470;2022-12-18T17:31:32;0.90;99.90
28189;DHT22;15471;51.166;4.470;2022-12-18T17:34:00;0.90;99.90
28189;DHT22;15471;51.166;4.470;2022-12-18T17:36:27;0.90;99.90
28189;DHT22;15471;51.166;4.470;2022-12-18T17:38:55;0.90;99.90
28189;DHT22;15471;51.166;4.470;2022-12-18T17:41:23;1.00;99.90
28189;DHT22;15471;51.166;4.470;2022-12-18T17:43:53;1.00;99.90
28189;DHT22;15471;51.166;4.470;2022-12-18T17:46:20;1.00;99.90
28189;DHT22;15471;51.166;4.470;2022-12-18T17:48:46;1.00;99.90
28189;DHT22;15471;51.166;4.470;2022-12-18T17:51:13;0.90;99.90